Time;durP1;ratioP1;P1;durP2;ratioP2;P2;SDS_P1;SDS_P2;PMS_P1;PMS_P2;Temp;Humidity;BMP_temperature;BMP_pressure;BME280_temperature;BME280_humidity;BME280_pressure;Samples;Min_cycle;Max_cycle;Signal;HPM_P1;HPM_P2
2021/09/03 00:01:53;;;;;;;13.20;8.93;;;17.60;99.90;;;;;;5001841;28;20566;-81
2021/09/03 00:04:19;;;;;;;9.53;8.10;;;17.60;99.90;;;;;;5000121;28;20186;-81
2021/09/03 00:06:45;;;;;;;8.97;8.07;;;17.50;99.90;;;;;;5017651;28;20201;-81
2021/09/03 00:09:11;;;;;;;9.33;7.90;;;17.50;99.90;;;;;;4984890;28;20183;-81
2021/09/03 00:11:37;;;;;;;8.97;8.07;;;17.50;99.90;;;;;;5017551;28;20566;-81
2021/09/03 00:14:02;;;;;;;8.97;8.07;;;17.50;99.90;;;;;;5016384;28;20225;-81
2021/09/03 00:16:28;;;;;;;9.63;8.17;;;17.50;99.90;;;;;;5018051;28;20147;-81
2021/09/03 00:18:54;;;;;;;10.13;8.80;;;17.40;99.90;;;;;;5018076;28;20597;-81
2021/09/03 00:21:20;;;;;;;9.70;8.80;;;17.40;99.90;;;;;;5002369;28;20225;-81
2021/09/03 00:23:45;;;;;;;8.80;7.90;;;17.40;99.90;;;;;;5019363;28;20211;-81
2021/09/03 00:26:11;;;;;;;9.30;8.10;;;17.30;99.90;;;;;;5000155;28;20235;-81
2021/09/03 00:28:37;;;;;;;8.30;7.50;;;17.30;99.90;;;;;;5000626;28;20203;-81
2021/09/03 00:31:03;;;;;;;9.47;8.00;;;17.30;99.90;;;;;;4999393;28;20163;-81
2021/09/03 00:33:28;;;;;;;11.73;8.47;;;17.30;99.90;;;;;;4984126;28;20179;-81
2021/09/03 00:35:54;;;;;;;9.37;8.47;;;17.30;99.90;;;;;;5002363;28;20167;-81
2021/09/03 00:38:20;;;;;;;11.70;7.87;;;17.20;99.90;;;;;;4967889;28;20202;-81
2021/09/03 00:40:46;;;;;;;10.20;9.20;;;17.20;99.90;;;;;;4999554;28;20659;-81
2021/09/03 00:43:11;;;;;;;9.40;8.47;;;17.20;99.90;;;;;;4967411;28;20203;-81
2021/09/03 00:45:37;;;;;;;10.30;8.83;;;17.20;99.90;;;;;;4997117;28;20191;-81
2021/09/03 00:48:03;;;;;;;10.67;8.27;;;17.20;99.90;;;;;;5017097;28;20187;-81
2021/09/03 00:50:29;;;;;;;9.80;8.80;;;17.10;99.90;;;;;;5000309;28;20155;-81
2021/09/03 00:52:55;;;;;;;9.23;8.33;;;17.20;99.90;;;;;;5015935;28;20562;-81
2021/09/03 00:55:21;;;;;;;9.33;8.43;;;17.10;99.90;;;;;;4981775;28;20690;-81
2021/09/03 00:57:48;;;;;;;8.83;8.00;;;17.10;99.90;;;;;;4999717;28;20199;-81
2021/09/03 01:00:14;;;;;;;9.20;8.30;;;17.10;99.90;;;;;;4983741;28;20602;-81
2021/09/03 01:02:40;;;;;;;9.77;8.77;;;17.00;99.90;;;;;;4982966;28;20632;-81
2021/09/03 01:05:06;;;;;;;10.03;8.93;;;17.10;99.90;;;;;;4999774;28;20585;-81
2021/09/03 01:07:32;;;;;;;9.80;8.20;;;17.00;99.90;;;;;;4995816;28;20190;-81
2021/09/03 01:09:58;;;;;;;8.27;7.43;;;17.00;99.90;;;;;;4983655;28;20662;-81
2021/09/03 01:12:24;;;;;;;10.20;7.80;;;17.00;99.90;;;;;;4982727;28;20365;-81
2021/09/03 01:14:49;;;;;;;8.90;8.00;;;17.00;99.90;;;;;;4994514;28;20626;-81
2021/09/03 01:17:16;;;;;;;9.60;8.20;;;17.00;99.90;;;;;;5011699;28;20195;-82
2021/09/03 01:19:42;;;;;;;10.93;8.57;;;16.90;99.90;;;;;;5012677;28;20647;-81
2021/09/03 01:22:09;;;;;;;11.90;8.43;;;16.90;99.90;;;;;;5016275;28;20179;-81
2021/09/03 01:24:35;;;;;;;9.43;8.00;;;16.90;99.90;;;;;;4998403;28;20218;-81
2021/09/03 01:27:00;;;;;;;8.77;7.93;;;16.90;99.90;;;;;;4999888;28;20618;-82
2021/09/03 01:29:26;;;;;;;10.63;9.07;;;16.90;99.90;;;;;;5000386;28;20155;-81
2021/09/03 01:31:52;;;;;;;9.90;8.90;;;16.80;99.90;;;;;;5001053;28;20162;-81
2021/09/03 01:34:18;;;;;;;9.50;8.70;;;16.80;99.90;;;;;;5017634;28;20189;-82
2021/09/03 01:36:43;;;;;;;9.57;8.57;;;16.80;99.90;;;;;;4985210;28;20215;-81
2021/09/03 01:39:09;;;;;;;9.00;8.10;;;16.80;99.90;;;;;;5017724;28;20155;-82
2021/09/03 01:41:35;;;;;;;9.57;8.67;;;16.80;99.90;;;;;;4999593;28;20155;-82
2021/09/03 01:44:01;;;;;;;8.67;7.87;;;16.80;99.90;;;;;;5017115;28;20175;-82
2021/09/03 01:46:27;;;;;;;11.67;9.43;;;16.80;99.90;;;;;;5016896;28;20658;-82
2021/09/03 01:48:52;;;;;;;10.00;9.00;;;16.80;99.90;;;;;;5001706;28;20190;-81
2021/09/03 01:51:18;;;;;;;10.90;9.30;;;16.70;99.90;;;;;;5000320;28;20182;-81
2021/09/03 01:53:44;;;;;;;11.00;9.50;;;16.70;99.90;;;;;;4998036;28;20210;-81
2021/09/03 01:56:10;;;;;;;9.30;8.50;;;16.70;99.90;;;;;;4995686;28;20182;-81
2021/09/03 01:58:35;;;;;;;9.80;8.77;;;16.80;99.90;;;;;;4979632;28;20201;-81
2021/09/03 02:01:02;;;;;;;12.00;9.90;;;16.70;99.90;;;;;;4998252;28;20175;-81
2021/09/03 02:03:28;;;;;;;10.13;9.13;;;16.70;99.90;;;;;;4967556;28;20202;-81
2021/09/03 02:05:53;;;;;;;9.40;8.20;;;16.70;99.90;;;;;;4999595;28;20943;-81
2021/09/03 02:08:19;;;;;;;10.97;8.90;;;16.70;99.90;;;;;;4982670;28;20199;-81
2021/09/03 02:10:45;;;;;;;9.60;8.70;;;16.60;99.90;;;;;;5000429;28;20586;-81
2021/09/03 02:13:11;;;;;;;10.13;9.13;;;16.70;99.90;;;;;;4984401;28;20175;-81
2021/09/03 02:15:36;;;;;;;10.90;9.57;;;16.60;99.90;;;;;;4999231;28;20211;-81
2021/09/03 02:18:02;;;;;;;10.10;8.80;;;16.60;99.90;;;;;;5015739;28;20187;-81
2021/09/03 02:20:28;;;;;;;9.67;8.67;;;16.60;99.90;;;;;;5016790;28;20186;-81
2021/09/03 02:22:54;;;;;;;10.67;9.60;;;16.60;99.90;;;;;;5000410;28;20223;-81
2021/09/03 02:25:20;;;;;;;10.43;9.33;;;16.60;99.90;;;;;;5017801;28;20164;-81
2021/09/03 02:27:45;;;;;;;10.90;9.90;;;16.60;99.90;;;;;;5000622;28;20186;-81
2021/09/03 02:30:12;;;;;;;10.03;9.10;;;16.60;99.90;;;;;;4999497;28;20162;-81
2021/09/03 02:32:38;;;;;;;9.60;8.80;;;16.60;99.90;;;;;;4998637;28;20155;-81
2021/09/03 02:35:04;;;;;;;10.10;9.00;;;16.60;99.90;;;;;;4996862;28;20618;-81
2021/09/03 02:37:30;;;;;;;9.40;8.50;;;16.50;99.90;;;;;;4979916;28;20610;-81
2021/09/03 02:39:56;;;;;;;9.60;8.60;;;16.50;99.90;;;;;;5015056;28;20586;-81
2021/09/03 02:42:21;;;;;;;10.23;9.10;;;16.50;99.90;;;;;;4997418;28;20202;-81
2021/09/03 02:44:47;;;;;;;11.10;9.60;;;16.50;99.90;;;;;;4967745;28;20158;-81
2021/09/03 02:47:13;;;;;;;10.30;9.30;;;16.50;99.90;;;;;;5000053;28;20190;-81
2021/09/03 02:49:39;;;;;;;9.47;8.43;;;16.40;99.90;;;;;;5004392;28;20242;-81
2021/09/03 02:52:06;;;;;;;11.23;10.07;;;16.40;99.90;;;;;;5002929;28;20182;-81
2021/09/03 02:54:32;;;;;;;11.63;8.93;;;16.40;99.90;;;;;;4999996;28;20197;-81
2021/09/03 02:56:58;;;;;;;13.10;8.70;;;16.40;99.90;;;;;;5020056;28;20613;-81
2021/09/03 02:59:24;;;;;;;12.27;8.90;;;16.40;99.90;;;;;;5020992;28;20222;-81
2021/09/03 03:01:49;;;;;;;11.13;8.80;;;16.40;99.90;;;;;;5020838;28;20573;-81
2021/09/03 03:04:15;;;;;;;10.40;8.70;;;16.30;99.90;;;;;;5037855;28;20167;-81
2021/09/03 03:06:42;;;;;;;10.47;9.47;;;16.30;99.90;;;;;;5019660;28;20191;-81
2021/09/03 03:09:08;;;;;;;9.10;8.30;;;16.30;99.90;;;;;;5019204;28;20571;-81
2021/09/03 03:11:34;;;;;;;10.23;9.23;;;16.30;99.90;;;;;;5020628;28;20538;-81
2021/09/03 03:14:09;;;;;;;8.80;8.00;;;16.30;99.90;;;;;;5004290;28;20616;-81
2021/09/03 03:16:34;;;;;;;9.37;8.57;;;16.30;99.90;;;;;;5036921;28;20585;-81
2021/09/03 03:19:00;;;;;;;9.33;8.33;;;16.30;99.90;;;;;;5021374;28;20586;-81
2021/09/03 03:21:26;;;;;;;12.53;9.00;;;16.30;99.90;;;;;;5020898;28;20594;-82
2021/09/03 03:23:52;;;;;;;8.60;7.80;;;16.20;99.90;;;;;;5002273;28;20600;-81
2021/09/03 03:26:18;;;;;;;9.47;8.57;;;16.20;99.90;;;;;;5037075;28;20154;-80
2021/09/03 03:28:44;;;;;;;9.43;8.60;;;16.20;99.90;;;;;;5037345;28;20593;-81
2021/09/03 03:31:15;;;;;;;9.10;7.90;;;16.20;99.90;;;;;;5037303;28;20589;-81
2021/09/03 03:33:40;;;;;;;8.43;7.63;;;16.20;99.90;;;;;;5003687;28;20625;-80
2021/09/03 03:36:06;;;;;;;7.90;7.20;;;16.10;99.90;;;;;;5037206;28;20576;-81
2021/09/03 03:38:32;;;;;;;9.60;8.60;;;16.10;99.90;;;;;;5049547;23;20241;-79
2021/09/03 03:40:58;;;;;;;8.40;7.50;;;16.10;99.90;;;;;;5036244;28;20604;-80
2021/09/03 03:43:23;;;;;;;8.53;7.67;;;16.10;99.90;;;;;;5033379;28;20552;-81
2021/09/03 03:45:49;;;;;;;9.00;6.80;;;16.10;99.90;;;;;;5031789;28;20173;-80
2021/09/03 03:48:15;;;;;;;8.90;8.10;;;16.10;99.90;;;;;;5033096;28;20189;-80
2021/09/03 03:50:41;;;;;;;8.67;7.70;;;16.10;99.90;;;;;;5035320;28;20240;-80
2021/09/03 03:53:07;;;;;;;9.90;7.40;;;16.10;99.90;;;;;;5037647;28;20219;-80
2021/09/03 03:55:32;;;;;;;8.70;7.80;;;16.10;99.90;;;;;;5055547;28;20611;-81
2021/09/03 03:57:58;;;;;;;7.83;6.93;;;16.10;99.90;;;;;;5055305;28;20714;-81
2021/09/03 04:00:25;;;;;;;6.53;5.93;;;16.10;99.90;;;;;;5052665;28;20214;-81
2021/09/03 04:02:50;;;;;;;8.73;6.37;;;16.00;99.90;;;;;;5035945;28;20583;-81
2021/09/03 04:05:17;;;;;;;7.70;6.77;;;16.00;99.90;;;;;;5052193;28;20173;-81
2021/09/03 04:07:42;;;;;;;9.80;6.80;;;16.00;99.90;;;;;;5051196;28;21138;-81
2021/09/03 04:10:08;;;;;;;7.37;6.70;;;16.00;99.90;;;;;;5033755;28;20298;-80
2021/09/03 04:12:34;;;;;;;6.27;5.67;;;15.90;99.90;;;;;;5052282;28;20169;-80
2021/09/03 04:15:00;;;;;;;7.97;7.20;;;16.00;99.90;;;;;;5017956;28;20709;-80
2021/09/03 04:17:26;;;;;;;7.60;6.00;;;15.90;99.90;;;;;;5053090;28;20204;-79
2021/09/03 04:19:52;;;;;;;7.20;6.50;;;15.90;99.90;;;;;;5035475;28;20650;-81
2021/09/03 04:22:17;;;;;;;6.43;5.83;;;15.90;99.90;;;;;;5056465;28;20193;-81
2021/09/03 04:24:43;;;;;;;7.03;6.13;;;15.90;99.90;;;;;;5034766;28;20166;-80
2021/09/03 04:27:09;;;;;;;7.47;6.70;;;15.90;99.90;;;;;;5050124;28;20196;-81
2021/09/03 04:29:34;;;;;;;8.03;6.40;;;15.90;99.90;;;;;;5054706;28;20204;-80
2021/09/03 04:32:00;;;;;;;6.37;5.77;;;15.80;99.90;;;;;;5037949;28;20525;-80
2021/09/03 04:34:26;;;;;;;7.40;6.60;;;15.80;99.90;;;;;;5055509;28;20684;-79
2021/09/03 04:36:52;;;;;;;8.20;6.30;;;15.80;99.90;;;;;;5056734;28;20657;-80
2021/09/03 04:39:18;;;;;;;6.73;5.97;;;15.80;99.90;;;;;;5040196;28;20263;-79
2021/09/03 04:41:43;;;;;;;8.70;7.17;;;15.80;99.90;;;;;;5028194;28;20173;-80
2021/09/03 04:44:09;;;;;;;7.87;6.37;;;15.80;99.90;;;;;;5053859;28;20645;-78
2021/09/03 04:46:35;;;;;;;6.97;6.27;;;15.90;99.90;;;;;;5037548;28;20181;-79
2021/09/03 04:49:01;;;;;;;7.27;6.57;;;15.80;99.90;;;;;;5036452;28;20177;-79
2021/09/03 04:51:26;;;;;;;9.03;6.47;;;15.80;99.90;;;;;;5054564;28;20173;-79
2021/09/03 04:53:52;;;;;;;8.53;6.87;;;15.80;99.90;;;;;;5039846;28;20185;-79
2021/09/03 04:56:18;;;;;;;7.87;7.07;;;15.80;99.90;;;;;;5053446;28;20166;-78
2021/09/03 04:58:44;;;;;;;8.13;7.00;;;15.80;99.90;;;;;;5058890;28;20583;-78
2021/09/03 05:01:10;;;;;;;6.80;6.00;;;15.90;99.90;;;;;;5059795;28;20173;-78
2021/09/03 05:03:35;;;;;;;8.17;5.93;;;15.90;99.90;;;;;;5068639;28;20165;-78
2021/09/03 05:06:01;;;;;;;6.63;5.70;;;16.00;99.90;;;;;;5049321;28;20242;-78
2021/09/03 05:08:27;;;;;;;12.50;6.30;;;16.00;99.90;;;;;;5069111;28;20665;-78
2021/09/03 05:10:52;;;;;;;5.97;5.43;;;16.10;99.90;;;;;;5069968;28;20169;-78
2021/09/03 05:13:18;;;;;;;8.93;6.80;;;16.20;99.90;;;;;;5040947;28;20252;-79
2021/09/03 05:15:44;;;;;;;9.37;7.67;;;16.20;99.90;;;;;;5057578;28;20201;-78
2021/09/03 05:18:10;;;;;;;8.03;6.80;;;16.20;99.90;;;;;;5040253;28;20239;-78
2021/09/03 05:20:35;;;;;;;8.43;6.83;;;16.30;99.90;;;;;;5040319;28;20568;-78
2021/09/03 05:23:01;;;;;;;7.33;6.00;;;16.30;99.90;;;;;;5056986;28;20583;-78
2021/09/03 05:25:27;;;;;;;7.17;5.80;;;16.40;99.90;;;;;;5057390;28;20557;-78
2021/09/03 05:27:53;;;;;;;7.93;7.13;;;16.40;99.90;;;;;;5040067;28;20595;-78
2021/09/03 05:30:19;;;;;;;7.00;6.30;;;16.40;99.90;;;;;;5060453;28;20564;-78
2021/09/03 05:32:46;;;;;;;7.93;6.17;;;16.40;99.90;;;;;;5042875;28;20578;-78
2021/09/03 05:35:12;;;;;;;8.70;6.30;;;16.40;99.90;;;;;;5039375;28;20201;-78
2021/09/03 05:37:38;;;;;;;8.27;7.47;;;16.30;99.90;;;;;;5039942;28;21194;-79
2021/09/03 05:40:06;;;;;;;7.03;5.57;;;16.30;99.90;;;;;;5058892;28;20583;-79
2021/09/03 05:42:31;;;;;;;8.63;6.33;;;16.40;99.90;;;;;;5058058;28;20571;-78
2021/09/03 05:44:57;;;;;;;7.50;6.53;;;16.40;99.90;;;;;;5059211;28;20560;-79
2021/09/03 05:47:23;;;;;;;9.50;5.80;;;16.40;99.90;;;;;;5040482;28;20188;-78
2021/09/03 05:49:49;;;;;;;6.87;6.07;;;16.40;99.90;;;;;;5035750;28;20185;-79
2021/09/03 05:52:14;;;;;;;8.63;6.60;;;16.50;99.90;;;;;;5034470;28;20180;-79
2021/09/03 05:54:40;;;;;;;7.23;6.53;;;16.50;99.90;;;;;;5018063;28;20693;-79
2021/09/03 05:57:06;;;;;;;7.53;6.00;;;16.50;99.90;;;;;;5034580;28;20254;-79
2021/09/03 05:59:32;;;;;;;7.07;5.60;;;16.60;99.90;;;;;;5034827;28;20216;-79
2021/09/03 06:01:58;;;;;;;15.53;7.00;;;16.70;99.90;;;;;;5034420;28;20171;-79
2021/09/03 06:04:24;;;;;;;7.17;6.47;;;16.70;99.90;;;;;;5052261;28;20603;-80
2021/09/03 06:06:49;;;;;;;7.67;6.40;;;16.80;99.90;;;;;;5052068;28;20643;-79
2021/09/03 06:09:15;;;;;;;10.10;6.80;;;16.80;99.90;;;;;;5039576;28;20169;-79
2021/09/03 06:11:41;;;;;;;7.00;5.83;;;16.90;99.90;;;;;;5052167;28;20165;-80
2021/09/03 06:14:07;;;;;;;7.03;5.60;;;16.90;99.90;;;;;;5034243;28;20204;-80
2021/09/03 06:16:33;;;;;;;9.87;6.80;;;17.00;99.90;;;;;;5033858;28;20169;-80
2021/09/03 06:18:59;;;;;;;7.43;6.17;;;17.00;99.90;;;;;;5017895;28;20817;-79
2021/09/03 06:21:25;;;;;;;7.97;6.87;;;17.10;99.90;;;;;;5052055;28;20176;-80
2021/09/03 06:23:50;;;;;;;8.80;7.13;;;17.10;99.90;;;;;;5034560;28;20602;-80
2021/09/03 06:26:16;;;;;;;10.20;6.37;;;17.10;99.90;;;;;;5051594;28;20258;-80
2021/09/03 06:28:42;;;;;;;6.67;6.07;;;17.20;99.90;;;;;;5034317;28;20207;-80
2021/09/03 06:31:08;;;;;;;8.13;6.10;;;17.20;99.90;;;;;;5034404;28;20688;-81
2021/09/03 06:33:33;;;;;;;7.47;6.80;;;17.30;99.90;;;;;;5051837;28;20176;-80
2021/09/03 06:35:59;;;;;;;7.60;6.20;;;17.40;99.90;;;;;;5033842;28;20560;-80
2021/09/03 06:38:26;;;;;;;6.70;5.70;;;17.50;99.90;;;;;;5034495;28;20669;-79
2021/09/03 06:40:52;;;;;;;9.93;6.70;;;17.70;99.90;;;;;;5052932;28;20259;-80
2021/09/03 06:43:18;;;;;;;7.83;6.63;;;18.10;99.90;;;;;;5052119;28;20568;-80
2021/09/03 06:45:46;;;;;;;7.10;6.40;;;18.80;99.90;;;;;;5052205;28;20570;-80
2021/09/03 06:48:12;;;;;;;6.30;5.70;;;19.60;99.90;;;;;;5052157;28;20196;-80
2021/09/03 06:50:38;;;;;;;6.53;5.83;;;20.60;99.90;;;;;;5052294;28;20580;-80
2021/09/03 06:53:03;;;;;;;6.10;5.50;;;21.60;99.90;;;;;;5052024;28;20516;-80
2021/09/03 06:55:29;;;;;;;5.20;4.70;;;22.70;99.90;;;;;;5051917;28;20219;-80
2021/09/03 06:57:55;;;;;;;5.60;4.60;;;23.70;99.90;;;;;;5033687;28;20201;-80
2021/09/03 07:00:21;;;;;;;5.60;5.10;;;24.80;99.90;;;;;;5035183;28;20916;-81
2021/09/03 07:02:46;;;;;;;5.60;4.87;;;25.80;99.90;;;;;;5053076;28;20187;-80
2021/09/03 07:05:12;;;;;;;5.67;4.80;;;26.70;99.90;;;;;;5034288;28;20597;-80
2021/09/03 07:07:38;;;;;;;8.80;6.03;;;27.60;99.90;;;;;;5051830;28;20211;-81
2021/09/03 07:10:05;;;;;;;4.90;4.50;;;28.40;99.90;;;;;;5052984;28;20579;-80
2021/09/03 07:12:30;;;;;;;4.40;3.90;;;29.30;99.90;;;;;;5034550;28;20990;-81
2021/09/03 07:14:56;;;;;;;5.90;4.50;;;30.00;99.90;;;;;;5051528;28;20619;-81
2021/09/03 07:17:22;;;;;;;5.50;4.80;;;30.60;99.90;;;;;;5032845;28;20190;-81
2021/09/03 07:19:47;;;;;;;4.23;3.90;;;30.90;99.90;;;;;;5026095;28;20203;-81
2021/09/03 07:22:13;;;;;;;8.40;4.53;;;31.10;99.90;;;;;;5022073;28;20172;-79
2021/09/03 07:24:39;;;;;;;6.30;4.27;;;31.30;99.90;;;;;;5044029;28;20249;-81
2021/09/03 07:27:05;;;;;;;4.10;3.80;;;31.70;99.90;;;;;;5024927;28;20194;-81
2021/09/03 07:29:31;;;;;;;5.20;4.60;;;32.20;99.90;;;;;;5051179;28;20168;-80
2021/09/03 07:31:56;;;;;;;4.80;3.70;;;32.40;99.90;;;;;;5051511;28;20179;-81
2021/09/03 07:34:22;;;;;;;4.77;4.37;;;32.70;99.90;;;;;;5051366;28;20197;-80
2021/09/03 07:36:48;;;;;;;3.60;3.20;;;32.80;99.90;;;;;;5051292;28;20177;-80
2021/09/03 07:39:18;;;;;;;4.63;4.00;;;33.00;99.90;;;;;;5051715;28;20823;-80
2021/09/03 07:41:46;;;;;;;5.13;4.60;;;33.40;99.90;;;;;;5034821;28;20176;-80
2021/09/03 07:44:12;;;;;;;4.53;3.90;;;33.90;99.60;;;;;;5051776;28;20567;-79
2021/09/03 07:46:38;;;;;;;7.10;4.63;;;34.20;98.60;;;;;;5050919;28;21217;-80
2021/09/03 07:49:05;;;;;;;4.80;4.40;;;34.70;97.70;;;;;;5017062;28;20268;-79
2021/09/03 07:51:32;;;;;;;5.13;4.63;;;35.00;96.20;;;;;;5051079;28;20567;-80
2021/09/03 07:53:58;;;;;;;4.43;3.63;;;35.30;94.80;;;;;;5034142;28;20571;-79
2021/09/03 07:56:23;;;;;;;3.70;3.40;;;35.60;93.80;;;;;;5020334;28;20625;-79
2021/09/03 07:58:49;;;;;;;4.67;4.00;;;35.80;92.30;;;;;;5037002;28;20181;-79
2021/09/03 08:01:15;;;;;;;4.07;3.77;;;36.00;90.90;;;;;;5055194;28;20197;-80
2021/09/03 08:03:41;;;;;;;3.80;3.43;;;36.20;90.30;;;;;;5053599;28;20174;-79
2021/09/03 08:06:06;;;;;;;5.67;4.47;;;36.30;87.40;;;;;;5036652;28;20183;-80
2021/09/03 08:08:32;;;;;;;4.00;3.60;;;36.40;85.80;;;;;;5054541;28;20602;-80
2021/09/03 08:10:58;;;;;;;4.73;3.33;;;36.60;82.90;;;;;;5020572;28;20179;-80
2021/09/03 08:13:24;;;;;;;5.37;4.83;;;36.50;79.40;;;;;;5036833;28;20637;-80
2021/09/03 08:15:49;;;;;;;4.13;3.53;;;36.60;78.50;;;;;;5036208;28;20172;-80
2021/09/03 08:18:15;;;;;;;3.80;3.50;;;36.50;77.00;;;;;;5036993;28;20275;-80
2021/09/03 08:20:44;;;;;;;4.70;4.30;;;36.40;75.00;;;;;;5036547;28;20287;-79
2021/09/03 08:23:13;;;;;;;5.20;4.70;;;36.20;73.50;;;;;;5054596;28;20184;-79
2021/09/03 08:25:39;;;;;;;4.63;3.53;;;36.30;73.40;;;;;;5036482;28;20618;-80
2021/09/03 08:28:05;;;;;;;3.80;3.50;;;36.30;71.80;;;;;;5054239;28;20599;-79
2021/09/03 08:30:31;;;;;;;4.30;3.90;;;36.40;70.80;;;;;;5054300;28;20254;-78
2021/09/03 08:32:56;;;;;;;4.63;4.23;;;36.30;67.90;;;;;;5036650;28;20173;-78
2021/09/03 08:35:23;;;;;;;4.73;4.00;;;36.20;67.40;;;;;;5054127;28;20164;-79
2021/09/03 08:37:48;;;;;;;5.23;4.80;;;36.30;68.50;;;;;;5053890;28;20193;-79
2021/09/03 08:40:15;;;;;;;5.23;4.07;;;36.60;66.60;;;;;;5036077;28;20598;-79
2021/09/03 08:42:42;;;;;;;4.03;3.73;;;36.50;66.60;;;;;;5036461;28;20316;-79
2021/09/03 08:45:11;;;;;;;4.60;3.60;;;36.70;66.60;;;;;;5036260;28;20615;-79
2021/09/03 08:47:41;;;;;;;7.30;3.47;;;37.10;66.70;;;;;;5035924;28;20613;-79
2021/09/03 08:50:10;;;;;;;4.13;3.63;;;37.50;65.30;;;;;;5053693;28;20571;-79
2021/09/03 08:52:36;;;;;;;3.77;3.47;;;37.70;65.10;;;;;;5037076;28;20579;-79
2021/09/03 08:55:03;;;;;;;3.87;3.57;;;38.10;64.30;;;;;;5053804;28;20575;-79
2021/09/03 08:57:29;;;;;;;4.40;3.50;;;38.30;63.20;;;;;;5053492;28;20595;-78
2021/09/03 08:59:54;;;;;;;4.17;3.83;;;38.50;62.00;;;;;;5053783;28;21033;-79
2021/09/03 09:02:20;;;;;;;4.23;3.83;;;38.80;61.30;;;;;;5054046;28;20173;-78
2021/09/03 09:04:50;;;;;;;5.20;4.20;;;38.80;59.10;;;;;;5053562;28;20250;-79
2021/09/03 09:07:24;;;;;;;5.27;4.50;;;38.70;57.80;;;;;;5021431;28;20201;-79
2021/09/03 09:09:49;;;;;;;4.53;4.13;;;38.40;55.50;;;;;;5040903;28;20575;-80
2021/09/03 09:12:17;;;;;;;3.90;3.60;;;38.20;56.10;;;;;;5055998;28;21219;-80
2021/09/03 09:15:03;;;;;;;4.07;3.57;;;38.00;55.40;;;;;;5020456;28;20649;-79
2021/09/03 09:17:29;;;;;;;4.20;3.10;;;38.20;56.70;;;;;;5041734;28;20610;-79
2021/09/03 09:19:55;;;;;;;3.43;3.13;;;38.20;56.10;;;;;;5032406;28;20563;-79
2021/09/03 09:22:21;;;;;;;4.13;3.73;;;38.20;55.40;;;;;;5066070;28;20643;-80
2021/09/03 09:24:47;;;;;;;3.70;3.40;;;38.20;54.90;;;;;;5048385;28;20200;-79
2021/09/03 09:27:24;;;;;;;4.33;3.60;;;38.10;54.80;;;;;;5066126;28;20241;-79
2021/09/03 09:29:50;;;;;;;4.87;4.03;;;38.30;54.70;;;;;;5049421;28;20604;-79
2021/09/03 09:32:16;;;;;;;4.63;4.20;;;38.60;54.80;;;;;;5047911;28;20586;-79
2021/09/03 09:34:44;;;;;;;3.70;3.30;;;38.70;55.00;;;;;;5066415;28;20572;-80
2021/09/03 09:37:15;;;;;;;4.93;4.53;;;39.10;54.60;;;;;;5028913;28;20201;-79
2021/09/03 09:39:57;;;;;;;6.80;3.20;;;39.30;53.50;;;;;;5046422;23;20669;-82
2021/09/03 09:42:24;;;;;;;4.00;3.40;;;39.30;51.60;;;;;;5001866;28;20676;-82
2021/09/03 09:45:11;;;;;;;3.87;3.57;;;39.20;52.10;;;;;;4987738;28;20667;-82
2021/09/03 09:47:39;;;;;;;4.43;4.00;;;39.30;52.70;;;;;;4987966;28;20690;-82
2021/09/03 09:50:32;;;;;;;4.20;3.80;;;39.30;51.30;;;;;;4992847;28;20619;-81
2021/09/03 09:53:09;;;;;;;5.20;3.00;;;39.20;52.20;;;;;;4969128;28;20961;-82
2021/09/03 09:55:37;;;;;;;3.60;3.30;;;39.50;52.50;;;;;;4990865;28;20588;-82
2021/09/03 09:58:04;;;;;;;3.37;3.07;;;39.80;52.50;;;;;;4995516;28;20560;-83
2021/09/03 10:00:33;;;;;;;4.30;3.93;;;40.00;51.90;;;;;;5013358;28;20619;-83
2021/09/03 10:03:01;;;;;;;5.80;3.27;;;40.20;50.70;;;;;;4995565;28;20596;-83
2021/09/03 10:05:28;;;;;;;4.07;3.70;;;40.20;50.30;;;;;;4996155;28;20967;-84
2021/09/03 10:07:53;;;;;;;3.50;3.20;;;40.40;49.90;;;;;;4980429;28;20932;-84
2021/09/03 10:10:19;;;;;;;4.27;3.90;;;40.50;49.40;;;;;;5016236;28;20593;-83
2021/09/03 10:12:45;;;;;;;3.10;2.90;;;40.60;49.50;;;;;;5016408;28;20233;-83
2021/09/03 10:15:11;;;;;;;3.87;2.93;;;40.80;49.30;;;;;;5002395;28;20174;-84
2021/09/03 10:17:38;;;;;;;3.50;3.20;;;41.00;49.70;;;;;;4994658;28;20265;-83
2021/09/03 10:20:08;;;;;;;3.40;2.97;;;41.30;48.50;;;;;;4995786;28;20623;-83
2021/09/03 10:22:42;;;;;;;4.80;3.33;;;41.20;47.70;;;;;;5012997;28;20903;-82
2021/09/03 10:25:09;;;;;;;5.93;3.57;;;41.00;46.70;;;;;;5013241;28;20609;-83
2021/09/03 10:27:35;;;;;;;3.47;3.17;;;41.00;46.50;;;;;;4978639;28;20577;-82
2021/09/03 10:30:12;;;;;;;3.30;3.00;;;40.80;46.60;;;;;;5012818;28;20601;-82
2021/09/03 10:32:40;;;;;;;3.60;3.27;;;40.80;46.60;;;;;;4995058;28;20934;-84
2021/09/03 10:35:17;;;;;;;3.20;2.90;;;40.60;46.30;;;;;;5012560;28;20627;-82
2021/09/03 10:37:44;;;;;;;2.90;2.63;;;40.40;46.30;;;;;;4994428;28;21124;-84
2021/09/03 10:40:13;;;;;;;4.07;3.73;;;40.00;45.70;;;;;;5012184;28;20613;-83
2021/09/03 10:42:57;;;;;;;5.50;3.03;;;39.50;45.20;;;;;;5012976;28;20600;-83
2021/09/03 10:45:30;;;;;;;3.07;2.67;;;39.30;45.80;;;;;;5011852;28;20624;-83
2021/09/03 10:48:07;;;;;;;3.60;3.10;;;39.10;46.10;;;;;;4978334;28;21141;-84
2021/09/03 10:50:38;;;;;;;3.93;2.97;;;39.10;45.90;;;;;;5015382;28;20966;-83
2021/09/03 10:53:04;;;;;;;3.33;3.03;;;38.70;45.80;;;;;;5012948;28;20565;-83
2021/09/03 10:55:50;;;;;;;3.50;3.20;;;38.40;45.80;;;;;;4978514;28;21139;-83
2021/09/03 10:58:41;;;;;;;3.30;3.00;;;38.10;45.70;;;;;;4994313;28;20174;-83
2021/09/03 11:01:10;;;;;;;3.40;3.10;;;37.80;46.10;;;;;;4994729;28;21013;-81
2021/09/03 11:03:47;;;;;;;2.90;2.70;;;37.70;45.50;;;;;;5012087;28;20660;-81
2021/09/03 11:06:29;;;;;;;3.70;3.40;;;37.30;45.30;;;;;;4994653;28;20647;-82
2021/09/03 11:09:16;;;;;;;4.97;3.30;;;37.20;46.20;;;;;;4977761;28;20678;-81
2021/09/03 11:11:47;;;;;;;3.40;3.10;;;37.00;44.30;;;;;;4996858;28;20577;-81
2021/09/03 11:14:25;;;;;;;3.53;3.23;;;36.50;45.10;;;;;;4995618;28;20582;-80
2021/09/03 11:16:58;;;;;;;4.53;3.03;;;36.00;45.40;;;;;;4995042;28;21310;-82
2021/09/03 11:19:47;;;;;;;3.00;2.80;;;35.60;44.30;;;;;;4994279;28;20605;-81
2021/09/03 11:22:21;;;;;;;3.63;2.80;;;35.20;45.00;;;;;;4994530;28;20625;-81
2021/09/03 11:25:04;;;;;;;4.27;3.70;;;34.90;45.10;;;;;;5011770;28;21026;-81
2021/09/03 11:27:30;;;;;;;4.33;2.97;;;34.70;45.40;;;;;;5015593;28;20580;-81
2021/09/03 11:29:58;;;;;;;3.70;3.40;;;34.40;45.60;;;;;;5014884;28;20692;-82
2021/09/03 11:32:28;;;;;;;3.33;3.00;;;34.30;45.80;;;;;;4982035;28;20569;-82
2021/09/03 11:35:04;;;;;;;3.07;2.33;;;34.40;46.80;;;;;;5015825;28;20569;-82
2021/09/03 11:37:39;;;;;;;2.70;2.50;;;34.50;46.70;;;;;;5015396;28;20580;-81
2021/09/03 11:40:22;;;;;;;4.57;2.93;;;34.50;46.70;;;;;;5015316;28;21226;-82
2021/09/03 11:42:49;;;;;;;2.87;2.67;;;34.60;47.00;;;;;;5015820;28;20927;-82
2021/09/03 11:45:22;;;;;;;3.07;2.40;;;34.70;47.30;;;;;;4982018;28;20624;-82
2021/09/03 11:48:18;;;;;;;3.50;3.20;;;34.90;47.50;;;;;;4981575;28;20593;-82
2021/09/03 11:50:48;;;;;;;3.57;3.20;;;35.00;45.80;;;;;;4969652;28;20716;-82
2021/09/03 11:53:22;;;;;;;3.00;2.40;;;35.00;46.90;;;;;;5015509;28;20655;-83
2021/09/03 11:55:50;;;;;;;3.00;2.40;;;35.00;45.80;;;;;;4981593;28;20645;-82
2021/09/03 11:58:17;;;;;;;2.97;2.50;;;35.00;45.90;;;;;;5015974;28;20928;-82
2021/09/03 12:00:48;;;;;;;2.87;2.20;;;34.90;46.50;;;;;;4998303;28;20640;-82
2021/09/03 12:03:16;;;;;;;3.10;2.80;;;34.90;46.10;;;;;;4999311;28;20580;-82
2021/09/03 12:05:46;;;;;;;3.93;2.20;;;34.90;45.30;;;;;;5009320;28;20643;-82
2021/09/03 12:08:26;;;;;;;4.83;3.17;;;34.60;46.00;;;;;;5016511;28;21059;-83
2021/09/03 12:11:06;;;;;;;3.50;2.40;;;34.50;45.40;;;;;;4999226;28;21095;-82
2021/09/03 12:13:35;;;;;;;3.80;2.93;;;34.10;45.30;;;;;;5015246;28;20577;-83
2021/09/03 12:16:08;;;;;;;2.73;2.53;;;33.90;46.00;;;;;;4997254;28;20571;-83
2021/09/03 12:18:37;;;;;;;3.97;2.60;;;33.90;46.80;;;;;;4997418;28;21204;-83
2021/09/03 12:21:24;;;;;;;2.37;2.17;;;33.90;46.80;;;;;;5005754;28;21056;-82
2021/09/03 12:23:52;;;;;;;3.53;2.70;;;33.60;46.40;;;;;;5008640;28;20921;-82
2021/09/03 12:26:24;;;;;;;3.37;2.50;;;33.40;46.30;;;;;;5008505;28;20585;-83
2021/09/03 12:28:53;;;;;;;3.33;2.93;;;33.20;46.90;;;;;;5005724;28;20584;-83
2021/09/03 12:31:25;;;;;;;3.70;3.17;;;33.20;47.30;;;;;;4977845;28;20588;-84
2021/09/03 12:33:53;;;;;;;4.70;4.07;;;33.10;47.50;;;;;;4987799;28;20615;-84
2021/09/03 12:36:24;;;;;;;5.20;3.17;;;33.10;47.70;;;;;;4989518;28;21138;-84
2021/09/03 12:38:59;;;;;;;4.27;3.87;;;33.00;47.80;;;;;;4984294;28;20583;-83
2021/09/03 12:41:31;;;;;;;3.60;2.83;;;32.80;47.50;;;;;;4985883;28;20587;-84
2021/09/03 12:44:04;;;;;;;5.23;4.73;;;32.60;47.80;;;;;;4962658;28;20622;-83
2021/09/03 12:46:43;;;;;;;3.43;3.13;;;32.60;47.90;;;;;;5003573;28;20594;-83
2021/09/03 12:49:12;;;;;;;3.73;3.17;;;32.40;48.10;;;;;;4972556;28;20952;-84